LTAF/ADA METAR and TAF weather

Enter ICAO airport designator
Station Type Date Time Source
LTAF METAR 2022/01/29 12:20 UTC NOAA

LTAF 291220Z 12003KT 050V170 CAVOK 13/M01 Q1021 NOSIG


Station Type Date Time Source
LTAF Decoded METAR 2022/01/29 12:20 UTC NOAA

Adana / Sakirpasa, Turkey (LTAF) 36-59N 035-18E 20M
Jan 29, 2022 - 07:20 AM EST / 2022.01.29 1220 UTC
Wind: from the ESE (120 degrees) at 3 MPH (3 KT) (direction variable):0
Visibility: greater than 7 mile(s):0
Temperature: 55 F (13 C)
Dew Point: 30 F (-1 C)
Relative Humidity: 37%
Pressure (altimeter): 30.15 in. Hg (1021 hPa)
ob: LTAF 291220Z 12003KT 050V170 CAVOK 13/M01 Q1021 NOSIG
cycle: 12

Station Type Date Time Source
LTAF TAF 2022/01/29 12:02 UTC NOAA

TAF LTAF 291040Z 2912/3012 03008KT CAVOK
TEMPO 2916/2920 4000 HZ SCT035 BKN200
TEMPO 2921/3001 SCT035 BKN200

Example: see airport list